地図

経路データ

SID SEASON NUMBER BASIN SUBBASIN NAME ISO_TIME NATURE LAT LON WMO_WIND WMO_PRES WMO_AGENCY TRACK_TYPE DIST2LAND LANDFALL IFLAG USA_AGENCY USA_ATCF_ID USA_LAT USA_LON USA_RECORD USA_STATUS USA_WIND USA_PRES USA_SSHS USA_R34_NE USA_R34_SE USA_R34_SW USA_R34_NW USA_R50_NE USA_R50_SE USA_R50_SW USA_R50_NW USA_R64_NE USA_R64_SE USA_R64_SW USA_R64_NW USA_POCI USA_ROCI USA_RMW USA_EYE TOKYO_LAT TOKYO_LON TOKYO_GRADE TOKYO_WIND TOKYO_PRES TOKYO_R50_DIR TOKYO_R50_LONG TOKYO_R50_SHORT TOKYO_R30_DIR TOKYO_R30_LONG TOKYO_R30_SHORT TOKYO_LAND CMA_LAT CMA_LON CMA_CAT CMA_WIND CMA_PRES HKO_LAT HKO_LON HKO_CAT HKO_WIND HKO_PRES NEWDELHI_LAT NEWDELHI_LON NEWDELHI_GRADE NEWDELHI_WIND NEWDELHI_PRES NEWDELHI_CI NEWDELHI_DP NEWDELHI_POCI REUNION_LAT REUNION_LON REUNION_TYPE REUNION_WIND REUNION_PRES REUNION_TNUM REUNION_CI REUNION_RMW REUNION_R34_NE REUNION_R34_SE REUNION_R34_SW REUNION_R34_NW REUNION_R50_NE REUNION_R50_SE REUNION_R50_SW REUNION_R50_NW REUNION_R64_NE REUNION_R64_SE REUNION_R64_SW REUNION_R64_NW BOM_LAT BOM_LON BOM_TYPE BOM_WIND BOM_PRES BOM_TNUM BOM_CI BOM_RMW BOM_R34_NE BOM_R34_SE BOM_R34_SW BOM_R34_NW BOM_R50_NE BOM_R50_SE BOM_R50_SW BOM_R50_NW BOM_R64_NE BOM_R64_SE BOM_R64_SW BOM_R64_NW BOM_ROCI BOM_POCI BOM_EYE BOM_POS_METHOD BOM_PRES_METHOD NADI_LAT NADI_LON NADI_CAT NADI_WIND NADI_PRES WELLINGTON_LAT WELLINGTON_LON WELLINGTON_WIND WELLINGTON_PRES DS824_LAT DS824_LON DS824_STAGE DS824_WIND DS824_PRES TD9636_LAT TD9636_LON TD9636_STAGE TD9636_WIND TD9636_PRES TD9635_LAT TD9635_LON TD9635_WIND TD9635_PRES TD9635_ROCI NEUMANN_LAT NEUMANN_LON NEUMANN_CLASS NEUMANN_WIND NEUMANN_PRES MLC_LAT MLC_LON MLC_CLASS MLC_WIND MLC_PRES USA_GUST BOM_GUST BOM_GUST_PER REUNION_GUST REUNION_GUST_PER USA_SEAHGT USA_SEARAD_NE USA_SEARAD_SE USA_SEARAD_SW USA_SEARAD_NW STORM_SPEED STORM_DIR
1976094S17039 1976 38 SI MM GLADYS 1976-04-03 09:00:00 TS -17.0652 38.6876 spur-other 0 0 ______________ -1 7 265
1976094S17039 1976 38 SI MM GLADYS 1976-04-03 12:00:00 TS -17.1000 38.3000 reunion spur-other 0 0 _____O______O_ -1 -17.1000 38.3000 99 9.90000 -17.1000 38.3000 TC 30 6 267
1976094S17039 1976 38 SI MM GLADYS 1976-04-03 15:00:00 TS -17.0999 38.0424 spur-other 0 0 _____P______P_ -1 -17.1075 38.0701 99 -17.1075 38.0701 TC 30 5 270
1976094S17039 1976 38 SI MM GLADYS 1976-04-03 18:00:00 TS -17.1000 37.8000 reunion spur-other 0 0 _____O______O_ -1 -17.1000 37.8000 99 9.90000 -17.1000 37.8000 TC 30 5 271
1976094S17039 1976 38 SI MM GLADYS 1976-04-03 21:00:00 TS -17.0901 37.4774 spur-other 0 0 _____P______P_ -1 -17.0901 37.4774 99 -17.0901 37.4774 TC 30 6 260
1976094S17039 1976 38 SI MM GLADYS 1976-04-04 00:00:00 TS -17.2000 37.2000 reunion spur-other 0 0 _____O______O_ -1 -17.2000 37.2000 99 9.90000 -17.2000 37.2000 TC 30 7 220
1976094S17039 1976 38 SI MM GLADYS 1976-04-04 03:00:00 TS -17.5999 37.0252 spur-other 0 0 _____P______P_ -1 -17.5999 37.0252 99 -17.5999 37.0252 TC 30 8 193
1976094S17039 1976 38 SI MM GLADYS 1976-04-04 06:00:00 TS -18.0000 37.0000 reunion spur-other 0 0 _____O______O_ -1 -18.0000 37.0000 2 9.90000 -18.0000 37.0000 TC 30 5 167
1976094S17039 1976 38 SI MM GLADYS 1976-04-04 09:00:00 TS -18.1175 37.1474 spur-other 10 10 _____P______P_ -1 -18.1175 37.1474 2 -18.1175 37.1474 TC 32 4 105
1976094S17039 1976 38 SI MM GLADYS 1976-04-04 12:00:00 TS -18.1000 37.4000 reunion spur-other 42 42 _____O______O_ -1 -18.1000 37.4000 99 9.90000 -18.1000 37.4000 TC 35 5 85
1976094S17039 1976 38 SI MM GLADYS 1976-04-04 15:00:00 TS -18.0725 37.6500 spur-other 64 59 _____P______P_ -1 -18.0725 37.6500 99 -18.0725 37.6500 TC 35 5 78
1976094S17039 1976 38 SI MM GLADYS 1976-04-04 18:00:00 TS -18.0000 37.9000 reunion spur-other 64 59 _____O______O_ -1 -18.0000 37.9000 99 9.90000 -18.0000 37.9000 TC 35 4 67
1976094S17039 1976 38 SI MM GLADYS 1976-04-04 21:00:00 TS -17.8999 38.0850 spur-other 64 56 _____P______P_ -1 -17.8999 38.0850 99 -17.8999 38.0850 TC 35 4 62
1976094S17039 1976 38 SI MM GLADYS 1976-04-05 00:00:00 TS -17.8000 38.3000 reunion spur-other 59 54 _____O______O_ -1 -17.8000 38.3000 99 9.90000 -17.8000 38.3000 TC 35 5 70
1976094S17039 1976 38 SI MM GLADYS 1976-04-05 03:00:00 TS -17.7125 38.6127 spur-other 64 64 _____P______P_ -1 -17.7125 38.6127 99 -17.7125 38.6127 TC 35 7 81
1976094S17039 1976 38 SI MM GLADYS 1976-04-05 06:00:00 TS -17.7000 39.0000 reunion spur-other 74 74 _____O______O_ -1 -17.7000 39.0000 3 9.90000 -17.7000 39.0000 TC 35 8 94
1976094S17039 1976 38 SI MM GLADYS 1976-04-05 09:00:00 TS -17.7677 39.4799 spur-other 99 99 _____P______P_ -1 -17.7677 39.4799 3 -17.7677 39.4799 TC 37 9 109
1976094S17039 1976 38 SI MM GLADYS 1976-04-05 12:00:00 TS -18.0000 39.9000 reunion spur-other 140 140 _____O______O_ -1 -18.0000 39.9000 99 9.90000 -18.0000 39.9000 TC 40 9 143
1976094S17039 1976 38 SI MM GLADYS 1976-04-05 15:00:00 TS -18.4545 40.0282 spur-other 193 193 _____P______P_ -1 -18.4545 40.0282 99 -18.4545 40.0282 TC 40 10 164
1976094S17039 1976 38 SI MM GLADYS 1976-04-05 18:00:00 TS -19.0000 40.2000 reunion spur-other 252 252 _____O______O_ -1 -19.0000 40.2000 99 9.90000 -19.0000 40.2000 TC 40 13 147
1976094S17039 1976 38 SI MM GLADYS 1976-04-05 21:00:00 TS -19.5407 40.7763 spur-other 332 275 _____P______P_ -1 -19.4785 40.6938 99 -19.4785 40.6938 TC 37 14 129
1976094S17039 1976 38 SI MM GLADYS 1976-04-06 00:00:00 TS -19.9000 41.4000 reunion spur-other 275 _____O______O_ -1 -19.9000 41.4000 99 9.90000 -19.9000 41.4000 TC 35 14 122

IBTrACS Databaseについて

本データベースは、米国NOAAが公開する1842年以降の世界の熱帯低気圧のベストトラックデータアーカイブInternational Best Track Archive for Climate Stewardship (IBTrACS)を、ウェブで閲覧しやすい形式に変換したものです。

最終更新日:2021-12-06